createdAt,value
2018-01-26T00:00:56.765Z,73.50
2018-01-26T00:03:26.269Z,74.60
2018-01-26T00:05:54.674Z,73.50
2018-01-26T00:08:22.219Z,73.50
2018-01-26T00:10:49.758Z,73.40
2018-01-26T00:13:17.322Z,72.00
2018-01-26T00:15:44.842Z,72.50
2018-01-26T00:18:12.384Z,73.50
2018-01-26T00:20:39.926Z,73.70
2018-01-26T00:23:07.454Z,74.20
2018-01-26T00:25:35.778Z,73.60
2018-01-26T00:28:03.316Z,73.70
2018-01-26T00:30:31.754Z,72.70
2018-01-26T00:32:59.300Z,72.10
2018-01-26T00:35:26.874Z,71.30
2018-01-26T00:37:54.396Z,70.40
2018-01-26T00:40:21.944Z,72.50
2018-01-26T00:42:49.494Z,71.50
2018-01-26T00:45:17.048Z,72.30
2018-01-26T00:47:44.597Z,71.40
2018-01-26T00:50:13.119Z,70.60
2018-01-26T00:52:40.746Z,72.90
2018-01-26T00:55:09.229Z,73.30
2018-01-26T00:57:36.770Z,71.80
2018-01-26T01:00:05.099Z,72.10
2018-01-26T01:02:33.595Z,72.20
2018-01-26T01:05:01.166Z,72.10
2018-01-26T01:07:28.693Z,72.30
2018-01-26T01:09:56.251Z,73.30
2018-01-26T01:12:23.795Z,73.10
2018-01-26T01:14:51.335Z,72.20
2018-01-26T01:17:18.888Z,72.90
2018-01-26T01:19:47.173Z,75.10
2018-01-26T01:22:14.719Z,75.10
2018-01-26T01:24:42.243Z,75.30
2018-01-26T01:27:09.818Z,74.80
2018-01-26T01:29:38.316Z,75.10
2018-01-26T01:32:05.834Z,74.30
2018-01-26T01:34:33.385Z,74.60
2018-01-26T01:37:00.921Z,74.30
2018-01-26T01:39:28.474Z,75.40
2018-01-26T01:41:55.994Z,75.10
2018-01-26T01:44:23.539Z,75.10
2018-01-26T01:46:51.826Z,76.10
2018-01-26T01:49:20.147Z,76.20
2018-01-26T01:51:47.674Z,76.20
2018-01-26T01:54:15.213Z,77.00
2018-01-26T01:56:42.739Z,77.60
2018-01-26T01:59:10.290Z,78.00
2018-01-26T02:01:37.827Z,77.10
2018-01-26T02:04:05.383Z,76.70
2018-01-26T02:06:32.906Z,76.00
2018-01-26T02:09:02.429Z,75.80
2018-01-26T02:11:29.964Z,74.90
2018-01-26T02:13:57.516Z,74.60
2018-01-26T02:16:25.044Z,75.00
2018-01-26T02:18:52.591Z,75.60
2018-01-26T02:21:20.111Z,74.90
2018-01-26T02:23:47.665Z,75.50
2018-01-26T02:26:16.925Z,76.30
2018-01-26T02:28:44.443Z,76.20
2018-01-26T02:31:12.731Z,75.80
2018-01-26T02:33:40.284Z,75.80
2018-01-26T02:36:08.790Z,75.40
2018-01-26T02:38:36.349Z,75.70
2018-01-26T02:41:03.889Z,75.20
2018-01-26T02:43:31.406Z,75.80
2018-01-26T02:45:58.963Z,76.20
2018-01-26T02:48:26.499Z,75.80
2018-01-26T02:50:54.056Z,76.10
2018-01-26T02:53:21.581Z,74.20
2018-01-26T02:55:49.145Z,73.10
2018-01-26T02:58:16.679Z,70.80
2018-01-26T03:00:44.972Z,69.50
2018-01-26T03:03:12.527Z,70.30
2018-01-26T03:05:40.827Z,70.70
2018-01-26T03:08:08.382Z,70.70
2018-01-26T03:10:35.911Z,70.60
2018-01-26T03:13:03.466Z,71.00
2018-01-26T03:15:31.006Z,71.80
2018-01-26T03:17:58.538Z,71.50
2018-01-26T03:20:26.094Z,71.40
2018-01-26T03:22:53.627Z,71.80
2018-01-26T03:25:21.183Z,71.80
2018-01-26T03:27:48.719Z,71.10
2018-01-26T03:30:17.267Z,70.40
2018-01-26T03:32:44.787Z,70.70
2018-01-26T03:35:12.309Z,70.20
2018-01-26T03:37:39.882Z,71.20
2018-01-26T03:40:08.187Z,71.10
2018-01-26T03:42:37.726Z,71.00
2018-01-26T03:45:06.233Z,71.50
2018-01-26T03:47:33.802Z,71.10
2018-01-26T03:50:02.101Z,75.00
2018-01-26T03:52:35.312Z,75.00
2018-01-26T03:55:02.840Z,76.00
2018-01-26T03:57:30.382Z,76.50
2018-01-26T03:59:58.701Z,76.90
2018-01-26T04:02:26.218Z,76.90
2018-01-26T04:04:54.530Z,77.50
2018-01-26T04:07:22.062Z,77.30
2018-01-26T04:09:50.375Z,78.00
2018-01-26T04:12:18.863Z,77.90
2018-01-26T04:14:46.423Z,77.80
2018-01-26T04:17:13.947Z,79.30
2018-01-26T04:19:44.206Z,81.80
2018-01-26T04:22:11.731Z,81.80
2018-01-26T04:24:40.208Z,82.10
2018-01-26T04:27:07.765Z,82.90
2018-01-26T04:29:36.084Z,83.50
2018-01-26T04:32:04.621Z,83.50
2018-01-26T04:34:32.909Z,83.50
2018-01-26T04:37:00.466Z,83.50
2018-01-26T04:39:27.992Z,83.70
2018-01-26T04:41:55.635Z,82.90
2018-01-26T04:44:23.174Z,83.80
2018-01-26T04:46:50.710Z,83.60
2018-01-26T04:49:18.266Z,84.30
2018-01-26T04:51:46.765Z,85.50
2018-01-26T04:54:14.333Z,85.10
2018-01-26T04:56:41.862Z,84.70
2018-01-26T04:59:09.401Z,84.20
2018-01-26T05:01:37.184Z,84.10
2018-01-26T05:04:04.718Z,84.10
2018-01-26T05:06:32.289Z,83.80
2018-01-26T05:09:00.583Z,84.50
2018-01-26T05:11:28.137Z,84.50
2018-01-26T05:13:55.674Z,84.70
2018-01-26T05:16:23.971Z,84.50
2018-01-26T05:18:51.519Z,84.50
2018-01-26T05:21:19.055Z,84.40
2018-01-26T05:23:46.598Z,84.30
2018-01-26T05:26:14.132Z,84.50
2018-01-26T05:28:41.691Z,84.90
2018-01-26T05:31:09.231Z,84.50
2018-01-26T05:33:36.784Z,84.20
2018-01-26T05:36:04.306Z,84.50
2018-01-26T05:38:31.834Z,84.30
2018-01-26T05:41:00.357Z,84.10
2018-01-26T05:43:27.884Z,85.40
2018-01-26T05:45:56.386Z,85.10
2018-01-26T05:48:25.650Z,84.40
2018-01-26T05:50:53.203Z,84.40
2018-01-26T05:53:20.730Z,85.20
2018-01-26T05:55:48.254Z,85.10
2018-01-26T05:58:15.814Z,84.90
2018-01-26T06:00:43.350Z,84.40
2018-01-26T06:03:12.900Z,84.60
2018-01-26T06:05:40.410Z,84.80
2018-01-26T06:08:07.990Z,85.80
2018-01-26T06:10:35.523Z,85.40
2018-01-26T06:13:03.083Z,86.30
2018-01-26T06:15:30.636Z,86.00
2018-01-26T06:17:58.162Z,85.80
2018-01-26T06:20:25.762Z,85.30
2018-01-26T06:22:53.409Z,86.30
2018-01-26T06:25:20.960Z,87.20
2018-01-26T06:27:48.482Z,87.20
2018-01-26T06:30:16.030Z,88.50
2018-01-26T06:32:44.520Z,88.00
2018-01-26T06:35:12.076Z,87.30
2018-01-26T06:37:39.634Z,86.50
2018-01-26T06:40:07.922Z,87.30
2018-01-26T06:42:36.234Z,87.30
2018-01-26T06:45:03.751Z,87.30
2018-01-26T06:47:31.302Z,88.10
2018-01-26T06:49:59.769Z,88.60
2018-01-26T06:52:27.310Z,89.10
2018-01-26T06:54:55.822Z,88.80
2018-01-26T06:57:23.350Z,88.50
2018-01-26T06:59:50.913Z,88.50
2018-01-26T07:02:18.441Z,89.00
2018-01-26T07:04:46.969Z,89.30
2018-01-26T07:07:14.521Z,89.40
2018-01-26T07:09:42.067Z,89.60
2018-01-26T07:12:09.600Z,89.80
2018-01-26T07:14:37.142Z,90.10
2018-01-26T07:17:05.429Z,90.50
2018-01-26T07:19:32.990Z,90.50
2018-01-26T07:22:00.515Z,89.60
2018-01-26T07:24:28.034Z,89.00
2018-01-26T07:26:55.598Z,89.60
2018-01-26T07:29:24.105Z,90.20
2018-01-26T07:31:51.662Z,90.80
2018-01-26T07:34:19.952Z,91.30
2018-01-26T07:36:47.514Z,91.40
2018-01-26T07:39:15.808Z,91.40
2018-01-26T07:41:43.332Z,91.30
2018-01-26T07:44:10.890Z,90.70
2018-01-26T07:46:38.418Z,90.80
2018-01-26T07:49:05.969Z,91.30
2018-01-26T07:51:33.494Z,91.50
2018-01-26T07:54:01.831Z,90.80
2018-01-26T07:56:29.422Z,90.80
2018-01-26T07:58:57.708Z,90.00
2018-01-26T08:01:27.022Z,89.80
2018-01-26T08:03:54.565Z,89.80
2018-01-26T08:06:22.120Z,90.00
2018-01-26T08:08:49.663Z,90.10
2018-01-26T08:11:18.239Z,90.10
2018-01-26T08:13:45.766Z,90.10
2018-01-26T08:16:13.315Z,90.10
2018-01-26T08:18:40.835Z,89.20
2018-01-26T08:21:09.140Z,89.00
2018-01-26T08:23:36.689Z,89.00
2018-01-26T08:26:04.219Z,87.10
2018-01-26T08:28:31.801Z,87.30
2018-01-26T08:31:00.084Z,87.00
2018-01-26T08:33:29.567Z,87.00
2018-01-26T08:35:57.090Z,86.90
2018-01-26T08:38:24.650Z,86.90
2018-01-26T08:40:52.182Z,87.00
2018-01-26T08:43:19.709Z,86.50
2018-01-26T08:45:48.260Z,86.70
2018-01-26T08:48:16.551Z,87.70
2018-01-26T08:50:44.160Z,87.70
2018-01-26T08:53:11.691Z,86.40
2018-01-26T08:55:40.972Z,90.30
2018-01-26T08:58:08.524Z,90.30
2018-01-26T09:00:36.063Z,89.90
2018-01-26T09:03:03.630Z,88.90
2018-01-26T09:05:31.154Z,88.50
2018-01-26T09:07:58.721Z,88.20
2018-01-26T09:10:26.242Z,88.50
2018-01-26T09:12:54.559Z,87.50
2018-01-26T09:15:22.106Z,87.40
2018-01-26T09:17:49.650Z,87.40
2018-01-26T09:20:17.182Z,87.00
2018-01-26T09:22:45.478Z,90.40
2018-01-26T09:25:13.037Z,90.40
2018-01-26T09:27:40.563Z,91.10
2018-01-26T09:30:08.134Z,91.10
2018-01-26T09:32:35.663Z,90.50
2018-01-26T09:35:03.226Z,90.60
2018-01-26T09:37:31.771Z,90.70
2018-01-26T09:39:59.322Z,90.70
2018-01-26T09:42:26.861Z,90.90
2018-01-26T09:44:54.395Z,90.50
2018-01-26T09:47:21.960Z,90.80
2018-01-26T09:49:49.487Z,90.60
2018-01-26T09:52:18.041Z,90.60
2018-01-26T09:54:46.542Z,91.40
2018-01-26T09:57:14.127Z,91.70
2018-01-26T09:59:41.647Z,91.30
2018-01-26T10:02:09.175Z,90.70
2018-01-26T10:04:36.733Z,90.20
2018-01-26T10:07:05.084Z,89.40
2018-01-26T10:09:33.396Z,89.90
2018-01-26T10:12:02.604Z,86.60
2018-01-26T10:14:30.164Z,86.50
2018-01-26T10:16:57.702Z,86.70
2018-01-26T10:19:25.268Z,87.30
2018-01-26T10:21:52.791Z,87.50
2018-01-26T10:24:20.347Z,87.80
2018-01-26T10:26:47.895Z,86.70
2018-01-26T10:29:15.450Z,88.10
2018-01-26T10:31:42.976Z,87.40
2018-01-26T10:34:10.508Z,87.10
2018-01-26T10:36:38.084Z,84.60
2018-01-26T10:39:05.603Z,87.00
2018-01-26T10:41:33.200Z,88.80
2018-01-26T10:44:01.517Z,89.80
2018-01-26T10:46:29.109Z,89.90
2018-01-26T10:48:56.665Z,88.90
2018-01-26T10:51:24.192Z,90.70
2018-01-26T10:53:51.743Z,91.30
2018-01-26T10:56:19.273Z,90.80
2018-01-26T10:58:47.607Z,89.90
2018-01-26T11:01:15.141Z,90.20
2018-01-26T11:03:42.696Z,90.10
2018-01-26T11:06:10.226Z,89.10
2018-01-26T11:08:38.742Z,88.40
2018-01-26T11:11:06.309Z,88.10
2018-01-26T11:13:33.841Z,89.30
2018-01-26T11:16:01.449Z,89.20
2018-01-26T11:18:29.004Z,89.10
2018-01-26T11:20:56.570Z,89.80
2018-01-26T11:23:24.107Z,88.70
2018-01-26T11:25:51.649Z,90.30
2018-01-26T11:28:19.197Z,91.00
2018-01-26T11:30:46.747Z,91.00
2018-01-26T11:33:14.337Z,90.70
2018-01-26T11:35:41.870Z,90.00
2018-01-26T11:38:09.425Z,89.90
2018-01-26T11:40:36.942Z,91.20
2018-01-26T11:43:04.497Z,91.00
2018-01-26T11:45:32.064Z,89.60
2018-01-26T11:47:59.582Z,90.00
2018-01-26T11:50:29.097Z,86.50
2018-01-26T11:52:57.598Z,88.50
2018-01-26T11:55:25.179Z,90.30
2018-01-26T11:57:53.482Z,89.50
2018-01-26T12:00:21.007Z,89.70
2018-01-26T12:02:48.572Z,90.10
2018-01-26T12:05:16.103Z,89.70
2018-01-26T12:07:43.658Z,90.50
2018-01-26T12:10:11.179Z,90.30
2018-01-26T12:12:39.705Z,90.20
2018-01-26T12:15:07.228Z,90.10
2018-01-26T12:17:35.482Z,90.90
2018-01-26T12:20:03.998Z,91.60
2018-01-26T12:22:31.518Z,90.60
2018-01-26T12:24:59.846Z,90.10
2018-01-26T12:27:27.367Z,90.10
2018-01-26T12:29:54.915Z,89.80
2018-01-26T12:32:22.451Z,90.70
2018-01-26T12:34:50.007Z,91.40
2018-01-26T12:37:17.534Z,90.60
2018-01-26T12:39:45.060Z,91.00
2018-01-26T12:42:12.611Z,91.60
2018-01-26T12:44:40.140Z,91.40
2018-01-26T12:47:08.467Z,91.30
2018-01-26T12:49:36.024Z,91.20
2018-01-26T12:52:03.689Z,91.20
2018-01-26T12:54:32.186Z,91.40
2018-01-26T12:57:00.646Z,89.90
2018-01-26T12:59:30.152Z,90.30
2018-01-26T13:01:57.707Z,90.30
2018-01-26T13:04:25.252Z,89.20
2018-01-26T13:06:52.779Z,88.50
2018-01-26T13:09:20.326Z,88.20
2018-01-26T13:11:47.863Z,88.20
2018-01-26T13:14:15.413Z,87.80
2018-01-26T13:16:42.940Z,90.00
2018-01-26T13:19:11.245Z,88.00
2018-01-26T13:21:38.803Z,87.90
2018-01-26T13:24:06.331Z,86.70
2018-01-26T13:26:33.882Z,86.70
2018-01-26T13:29:01.407Z,84.70
2018-01-26T13:31:28.951Z,86.00
2018-01-26T13:33:56.478Z,86.80
2018-01-26T13:36:24.929Z,88.00
2018-01-26T13:38:52.473Z,85.90
2018-01-26T13:41:20.976Z,84.30
2018-01-26T13:43:49.289Z,85.40
2018-01-26T13:46:16.828Z,85.40
2018-01-26T13:48:44.378Z,84.40
2018-01-26T13:51:11.896Z,85.80
2018-01-26T13:53:39.443Z,87.80
2018-01-26T13:56:06.974Z,88.30
2018-01-26T13:58:34.546Z,88.30
2018-01-26T14:01:02.075Z,87.20
2018-01-26T14:03:29.594Z,87.70
2018-01-26T14:05:57.137Z,88.30
2018-01-26T14:08:24.669Z,87.10
2018-01-26T14:10:52.213Z,87.60
2018-01-26T14:13:19.747Z,86.20
2018-01-26T14:15:47.319Z,85.70
2018-01-26T14:18:14.842Z,85.80
2018-01-26T14:20:42.406Z,85.30
2018-01-26T14:23:09.924Z,84.70
2018-01-26T14:25:37.442Z,84.70
2018-01-26T14:28:04.985Z,84.40
2018-01-26T14:30:32.509Z,84.20
2018-01-26T14:33:00.057Z,83.80
2018-01-26T14:35:27.582Z,85.00
2018-01-26T14:37:55.125Z,83.40
2018-01-26T14:40:22.656Z,83.80
2018-01-26T14:42:50.210Z,84.60
2018-01-26T14:45:18.128Z,84.50
2018-01-26T14:47:45.652Z,84.40
2018-01-26T14:50:13.201Z,84.20
2018-01-26T14:52:41.698Z,83.70
2018-01-26T14:55:09.286Z,84.10
2018-01-26T14:57:36.816Z,83.70
2018-01-26T15:00:04.367Z,83.70
2018-01-26T15:02:31.902Z,83.60
2018-01-26T15:04:59.455Z,85.10
2018-01-26T15:07:27.016Z,84.20
2018-01-26T15:09:54.538Z,84.50
2018-01-26T15:12:22.859Z,85.50
2018-01-26T15:14:50.398Z,85.50
2018-01-26T15:17:17.951Z,85.10
2018-01-26T15:19:45.486Z,85.20
2018-01-26T15:22:13.037Z,85.70
2018-01-26T15:24:40.563Z,85.40
2018-01-26T15:27:08.086Z,86.00
2018-01-26T15:29:35.640Z,85.20
2018-01-26T15:32:03.165Z,85.30
2018-01-26T15:34:30.718Z,85.50
2018-01-26T15:36:59.002Z,85.20
2018-01-26T15:39:26.551Z,84.50
2018-01-26T15:41:54.073Z,85.10
2018-01-26T15:44:22.554Z,85.50
2018-01-26T15:46:52.039Z,85.00
2018-01-26T15:49:19.563Z,85.80
2018-01-26T15:51:47.135Z,85.60
2018-01-26T15:54:14.666Z,86.30
2018-01-26T15:56:42.213Z,86.40
2018-01-26T15:59:09.745Z,87.00
2018-01-26T16:01:37.271Z,87.80
2018-01-26T16:04:04.814Z,87.90
2018-01-26T16:06:32.338Z,88.20
2018-01-26T16:08:59.879Z,87.20
2018-01-26T16:11:27.411Z,87.40
2018-01-26T16:13:56.918Z,88.10
2018-01-26T16:16:25.210Z,88.40
2018-01-26T16:18:52.790Z,88.40
2018-01-26T16:21:20.326Z,88.80
2018-01-26T16:23:47.859Z,87.80
2018-01-26T16:26:15.414Z,87.70
2018-01-26T16:28:42.946Z,88.00
2018-01-26T16:31:10.507Z,88.40
2018-01-26T16:33:38.018Z,88.20
2018-01-26T16:36:05.574Z,88.20
2018-01-26T16:38:33.099Z,88.60
2018-01-26T16:41:00.650Z,88.30
2018-01-26T16:43:28.171Z,88.30
2018-01-26T16:45:55.694Z,88.20
2018-01-26T16:48:23.234Z,87.40
2018-01-26T16:50:52.434Z,87.70
2018-01-26T16:53:19.997Z,87.70
2018-01-26T16:55:47.519Z,87.80
2018-01-26T16:58:15.070Z,87.80
2018-01-26T17:00:42.610Z,87.60
2018-01-26T17:03:10.130Z,87.60
2018-01-26T17:05:37.692Z,87.30
2018-01-26T17:08:05.981Z,87.60
2018-01-26T17:10:34.328Z,87.30
2018-01-26T17:13:01.862Z,87.20
2018-01-26T17:15:29.418Z,87.00
2018-01-26T17:17:56.982Z,87.50
2018-01-26T17:20:24.509Z,86.40
2018-01-26T17:22:52.051Z,88.00
2018-01-26T17:25:19.581Z,88.30
2018-01-26T17:27:48.080Z,88.10
2018-01-26T17:30:15.625Z,87.80
2018-01-26T17:32:43.181Z,88.00
2018-01-26T17:35:11.662Z,86.20
2018-01-26T17:37:39.211Z,86.10
2018-01-26T17:40:06.786Z,87.00
2018-01-26T17:42:34.314Z,86.80
2018-01-26T17:45:01.892Z,85.90
2018-01-26T17:47:29.418Z,86.50
2018-01-26T17:49:56.998Z,86.70
2018-01-26T17:52:24.544Z,87.00
2018-01-26T17:54:52.070Z,87.00
2018-01-26T17:57:19.637Z,86.70
2018-01-26T17:59:47.158Z,86.10
2018-01-26T18:02:14.706Z,86.70
2018-01-26T18:04:43.202Z,86.30
2018-01-26T18:07:10.754Z,86.20
2018-01-26T18:09:39.238Z,85.80
2018-01-26T18:12:08.487Z,86.10
2018-01-26T18:14:36.043Z,86.10
2018-01-26T18:17:03.566Z,86.50
2018-01-26T18:19:31.115Z,87.40
2018-01-26T18:21:58.644Z,86.80
2018-01-26T18:24:26.191Z,86.40
2018-01-26T18:26:54.750Z,86.50
2018-01-26T18:29:22.284Z,85.90
2018-01-26T18:31:49.839Z,86.30
2018-01-26T18:34:17.383Z,86.40
2018-01-26T18:36:45.896Z,86.50
2018-01-26T18:39:13.410Z,85.80
2018-01-26T18:41:40.969Z,86.30
2018-01-26T18:44:08.506Z,86.40
2018-01-26T18:46:36.076Z,86.00
2018-01-26T18:49:03.935Z,86.20
2018-01-26T18:51:32.218Z,85.70
2018-01-26T18:53:59.771Z,85.70
2018-01-26T18:56:27.305Z,86.40
2018-01-26T18:58:54.873Z,86.50
2018-01-26T19:01:22.434Z,86.80
2018-01-26T19:03:50.029Z,87.20
2018-01-26T19:06:17.542Z,86.90
2018-01-26T19:08:45.054Z,86.80
2018-01-26T19:11:13.375Z,87.60
2018-01-26T19:13:40.904Z,87.50
2018-01-26T19:16:09.226Z,87.30
2018-01-26T19:18:36.746Z,87.20
2018-01-26T19:21:04.463Z,87.10
2018-01-26T19:23:32.006Z,86.20
2018-01-26T19:26:00.511Z,86.30
2018-01-26T19:28:28.246Z,85.80
2018-01-26T19:30:55.818Z,86.60
2018-01-26T19:33:23.367Z,87.40
2018-01-26T19:35:50.909Z,87.80
2018-01-26T19:38:18.459Z,88.00
2018-01-26T19:40:46.738Z,87.60
2018-01-26T19:43:15.022Z,87.80
2018-01-26T19:45:44.482Z,87.80
2018-01-26T19:48:12.003Z,88.20
2018-01-26T19:50:39.553Z,88.10
2018-01-26T19:53:07.097Z,87.80
2018-01-26T19:55:34.650Z,87.90
2018-01-26T19:58:02.179Z,88.30
2018-01-26T20:00:30.579Z,88.40
2018-01-26T20:03:10.697Z,89.00
2018-01-26T20:05:49.764Z,89.00
2018-01-26T20:11:17.645Z,88.00
2018-01-26T20:13:46.111Z,88.30
2018-01-26T20:16:13.692Z,88.40
2018-01-26T20:18:41.982Z,89.20
2018-01-26T20:21:09.506Z,89.20
2018-01-26T20:23:37.066Z,89.80
2018-01-26T20:26:05.564Z,88.80
2018-01-26T20:28:33.106Z,88.70
2018-01-26T20:31:00.631Z,88.90
2018-01-26T20:33:28.272Z,87.90
2018-01-26T20:35:55.830Z,87.10
2018-01-26T20:38:23.349Z,87.20
2018-01-26T20:40:50.904Z,87.10
2018-01-26T20:43:18.430Z,87.50
2018-01-26T20:45:45.982Z,87.10
2018-01-26T20:48:13.558Z,87.10
2018-01-26T20:50:41.110Z,86.70
2018-01-26T20:53:08.764Z,87.50
2018-01-26T20:55:36.339Z,86.30
2018-01-26T20:58:03.866Z,87.10
2018-01-26T21:00:31.511Z,88.00
2018-01-26T21:03:01.026Z,88.50
2018-01-26T21:05:28.559Z,87.90
2018-01-26T21:07:56.115Z,88.10
2018-01-26T21:10:24.399Z,87.50
2018-01-26T21:12:51.946Z,87.60
2018-01-26T21:15:21.210Z,88.50
2018-01-26T21:17:48.942Z,88.40
2018-01-26T21:20:16.503Z,88.00
2018-01-26T21:22:44.032Z,87.70
2018-01-26T21:25:11.589Z,88.00
2018-01-26T21:27:39.114Z,87.70
2018-01-26T21:30:06.826Z,88.00
2018-01-26T21:32:34.351Z,87.80
2018-01-26T21:35:01.899Z,87.30
2018-01-26T21:37:29.421Z,86.70
2018-01-26T21:39:56.950Z,87.00
2018-01-26T21:42:24.514Z,87.40
2018-01-26T21:44:53.781Z,87.30
2018-01-26T21:47:21.336Z,87.30
2018-01-26T21:49:48.871Z,87.10
2018-01-26T21:52:16.400Z,86.90
2018-01-26T21:54:43.942Z,86.70
2018-01-26T21:57:12.231Z,87.90
2018-01-26T21:59:39.769Z,87.80
2018-01-26T22:02:08.060Z,87.00
2018-01-26T22:04:41.341Z,87.00
2018-01-26T22:07:14.295Z,87.20
2018-01-26T22:09:41.850Z,87.00
2018-01-26T22:12:09.374Z,87.10
2018-01-26T22:14:37.039Z,86.20
2018-01-26T22:17:04.583Z,86.60
2018-01-26T22:19:32.291Z,86.40
2018-01-26T22:22:00.026Z,86.90
2018-01-26T22:24:27.594Z,87.10
2018-01-26T22:26:55.113Z,86.10
2018-01-26T22:29:22.656Z,86.30
2018-01-26T22:31:50.945Z,85.60
2018-01-26T22:34:18.491Z,85.60
2018-01-26T22:36:46.006Z,85.90
2018-01-26T22:39:13.936Z,84.90
2018-01-26T22:41:41.431Z,86.80
2018-01-26T22:44:08.973Z,86.70
2018-01-26T22:46:37.654Z,87.40
2018-01-26T22:49:05.168Z,87.30
2018-01-26T22:51:32.720Z,86.50
2018-01-26T22:54:00.253Z,87.60
2018-01-26T22:56:28.027Z,87.40
2018-01-26T22:58:55.545Z,87.50
2018-01-26T23:01:23.071Z,87.00
2018-01-26T23:03:51.603Z,87.80
2018-01-26T23:06:19.146Z,87.80
2018-01-26T23:08:48.690Z,87.40
2018-01-26T23:11:16.207Z,87.60
2018-01-26T23:13:43.748Z,87.90
2018-01-26T23:16:12.036Z,88.20
2018-01-26T23:18:39.595Z,88.10
2018-01-26T23:21:07.114Z,88.70
2018-01-26T23:23:34.678Z,88.10
2018-01-26T23:26:02.247Z,88.20
2018-01-26T23:28:29.766Z,88.20
2018-01-26T23:30:57.313Z,88.30
2018-01-26T23:33:24.834Z,87.80
2018-01-26T23:35:53.150Z,87.90
2018-01-26T23:38:20.671Z,87.90
2018-01-26T23:40:49.874Z,88.60
2018-01-26T23:43:17.413Z,88.60
2018-01-26T23:45:44.931Z,88.90
2018-01-26T23:48:12.475Z,89.10
2018-01-26T23:50:39.999Z,88.50
2018-01-26T23:53:08.314Z,89.50
2018-01-26T23:55:35.831Z,89.60
2018-01-26T23:58:03.376Z,88.70
